Historyczne dane pomiarowe

Dodano dane terminowe – wersja testowa.

Dane z okresu 1951-2019

Wersja bazy: 1.34 [2019-03-16, lista zmian], aktualizacja planowana na 2019-04-15

Dane meteo z obszaru Polski uzyskane na podstawie danych udostępnionych przez Instytut Meteorologii i Gospodarki Wodnej – Państwowy Instytut Badawczy.

 

Wybierz Datę:    

       

TemperaturaWilgotnośćWiatrCiśnienieOpadyŚniegCzas trwania zjawisk
 Stacja t tx tn tng RH VA  wxwx mslp ppp RRR   cm mm wxwxwxwxwxwxwx
1964-01-17-11.9 -6.6-32.4--- 5.3 2.7---- 2.2-- 20---------
1964-01-18 -6.9 -6.1 -7.6--- 8.0 3.7---- 0.0-- 23---------
1964-01-19-10.0 -5.3-14.6--- 2.7 2.7---- 0.0-- 19---------
1964-01-20 -8.6 -6.1-16.4--- 2.7 1.3---- 0.0-- 19---------
1964-01-21 -7.4 -0.8-19.5--- 0.3 2.3---- 0.0-- 19---------
1964-01-22 -4.3 -2.2-11.2--- 5.3 4.7---- 0.5-- 19---------
1964-01-23 -1.7 -0.4 -5.6--- 8.0 2.3---- 0.0-- 20---------
1964-01-24 -2.9 -0.6 -5.0--- 8.0 4.7---- 0.0-- 20---------
1964-01-25 -1.9 0.3 -4.9--- 8.0 7.7---- 5.5-- 20---------
1964-01-26 -0.6 0.3 -1.7--- 7.0 3.3---- 2.3-- 24---------
1964-01-27 -3.8 1.6 -6.5--- 2.7 4.0---- 0.6-- 25---------
1964-01-28-12.0 -1.4-18.9--- 3.0 0.0---- 0.0-- 24---------
1964-01-29-11.6 1.3-21.9--- 1.0 0.3---- 0.0-- 23---------
1964-01-30-12.2 1.5-21.7--- 0.0 0.0---- 0.0-- 22---------
1964-01-31 -2.6 -2.1-17.1--- 8.0 3.0---- 0.8-- 22---------
1964-02-01 -0.9 2.0 -4.3--- 8.0 5.3---- 8.7-- 22---------
1964-02-02 0.7 1.7 -1.6--- 8.0 7.0---- 14.3-- 30---------
1964-02-03 -1.8 0.8 -2.6--- 8.0 3.3---- 0.0-- 30---------
1964-02-04 -0.6 1.3-12.5--- 8.0 4.0---- 3.1-- 29---------
1964-02-05 -1.9 1.1 -3.8--- 8.0 5.7---- 2.6-- 33---------
1964-02-06 -7.2 -2.7 -8.9--- 6.3 5.3---- 2.2-- 36---------
1964-02-07 -6.6 -5.2 -8.9--- 6.0 6.0---- 14.0-- 39---------
1964-02-08 -5.2 -4.4 -9.4--- 8.0 6.3---- 21.0-- 48---------
1964-02-09 -1.8 -0.8 -5.1--- 8.0 3.7---- 15.2-- 64---------
1964-02-10 -8.8 -1.3-10.0--- 7.3 1.3---- 2.1-- 65---------
1964-02-11 -1.5 0.6-10.0--- 8.0 5.7---- 5.3-- 66---------
1964-02-12 -3.1 -1.4 -5.8--- 8.0 1.7---- 4.3-- 67---------
1964-02-13 -9.8 -2.2-11.3--- 8.0 4.7---- 7.0-- 68---------
1964-02-14-15.5 -7.9-22.3--- 5.3 4.7---- 4.9-- 76---------
1964-02-15-19.0 -3.9-29.3--- 0.0 0.3---- 0.0-- 76---------
245.2 ms

 

Źródłem pochodzenia danych jest Instytut Meteorologii i Gospodarki Wodnej – Państwowy Instytut Badawczy. Dane Instytutu Meteorologii i Gospodarki Wodnej – Państwowego Instytutu Badawczego zostały przetworzone.

Dane źródłowe można odnaleźć na stronie https://dane.imgw.pl